sensor_id;sensor_type;location;lat;lon;timestamp;P1;durP1;ratioP1;P2;durP2;ratioP2
53652;SDS011;39553;52.954;5.932;2023-03-20T00:02:17;33.33;;;8.02;;
53652;SDS011;39553;52.954;5.932;2023-03-20T00:04:45;21.88;;;7.50;;
53652;SDS011;39553;52.954;5.932;2023-03-20T00:07:12;19.38;;;7.80;;
53652;SDS011;39553;52.954;5.932;2023-03-20T00:09:38;29.88;;;7.25;;
53652;SDS011;39553;52.954;5.932;2023-03-20T00:12:04;29.42;;;8.52;;
53652;SDS011;39553;52.954;5.932;2023-03-20T00:14:36;18.58;;;7.22;;
53652;SDS011;39553;52.954;5.932;2023-03-20T00:17:04;17.17;;;6.07;;
53652;SDS011;39553;52.954;5.932;2023-03-20T00:19:35;13.85;;;6.20;;
53652;SDS011;39553;52.954;5.932;2023-03-20T00:22:04;15.40;;;6.53;;
53652;SDS011;39553;52.954;5.932;2023-03-20T00:24:30;15.80;;;5.50;;
53652;SDS011;39553;52.954;5.932;2023-03-20T00:26:56;16.98;;;6.22;;
53652;SDS011;39553;52.954;5.932;2023-03-20T00:29:24;17.83;;;6.10;;
53652;SDS011;39553;52.954;5.932;2023-03-20T00:31:53;13.50;;;4.72;;
53652;SDS011;39553;52.954;5.932;2023-03-20T00:34:21;17.98;;;4.22;;
53652;SDS011;39553;52.954;5.932;2023-03-20T00:36:50;13.70;;;5.93;;
53652;SDS011;39553;52.954;5.932;2023-03-20T00:39:16;12.05;;;4.10;;
53652;SDS011;39553;52.954;5.932;2023-03-20T00:41:51;22.10;;;5.05;;
53652;SDS011;39553;52.954;5.932;2023-03-20T00:47:20;10.95;;;4.03;;
53652;SDS011;39553;52.954;5.932;2023-03-20T00:49:48;10.05;;;4.50;;
53652;SDS011;39553;52.954;5.932;2023-03-20T00:52:16;11.70;;;4.18;;
53652;SDS011;39553;52.954;5.932;2023-03-20T00:54:43;11.38;;;4.25;;
53652;SDS011;39553;52.954;5.932;2023-03-20T00:57:13;14.25;;;4.75;;
53652;SDS011;39553;52.954;5.932;2023-03-20T00:59:53;12.60;;;5.15;;
53652;SDS011;39553;52.954;5.932;2023-03-20T01:02:24;15.57;;;4.72;;
53652;SDS011;39553;52.954;5.932;2023-03-20T01:04:53;11.13;;;4.82;;
53652;SDS011;39553;52.954;5.932;2023-03-20T01:07:20;15.55;;;6.43;;
53652;SDS011;39553;52.954;5.932;2023-03-20T01:09:47;16.60;;;5.38;;
53652;SDS011;39553;52.954;5.932;2023-03-20T01:12:26;16.10;;;6.10;;
53652;SDS011;39553;52.954;5.932;2023-03-20T01:14:54;10.82;;;5.43;;
53652;SDS011;39553;52.954;5.932;2023-03-20T01:17:22;20.75;;;5.90;;
53652;SDS011;39553;52.954;5.932;2023-03-20T01:19:50;13.27;;;5.32;;
53652;SDS011;39553;52.954;5.932;2023-03-20T01:22:16;12.75;;;5.18;;
53652;SDS011;39553;52.954;5.932;2023-03-20T01:24:43;17.17;;;5.88;;
53652;SDS011;39553;52.954;5.932;2023-03-20T01:27:11;13.73;;;6.07;;
53652;SDS011;39553;52.954;5.932;2023-03-20T01:29:43;18.52;;;7.20;;
53652;SDS011;39553;52.954;5.932;2023-03-20T01:32:14;19.00;;;7.05;;
53652;SDS011;39553;52.954;5.932;2023-03-20T01:34:42;18.98;;;7.75;;
53652;SDS011;39553;52.954;5.932;2023-03-20T01:37:13;13.90;;;6.70;;
53652;SDS011;39553;52.954;5.932;2023-03-20T01:39:42;23.95;;;7.63;;
53652;SDS011;39553;52.954;5.932;2023-03-20T01:42:10;17.85;;;7.00;;
53652;SDS011;39553;52.954;5.932;2023-03-20T01:44:41;17.00;;;7.93;;
53652;SDS011;39553;52.954;5.932;2023-03-20T01:47:16;14.15;;;6.85;;
53652;SDS011;39553;52.954;5.932;2023-03-20T01:52:53;21.15;;;9.57;;
53652;SDS011;39553;52.954;5.932;2023-03-20T01:55:29;15.82;;;8.07;;
53652;SDS011;39553;52.954;5.932;2023-03-20T01:57:56;21.80;;;8.70;;
53652;SDS011;39553;52.954;5.932;2023-03-20T02:00:24;22.70;;;9.40;;
53652;SDS011;39553;52.954;5.932;2023-03-20T02:02:50;17.42;;;7.85;;
53652;SDS011;39553;52.954;5.932;2023-03-20T02:05:19;17.80;;;8.23;;
53652;SDS011;39553;52.954;5.932;2023-03-20T02:07:55;21.88;;;8.32;;
53652;SDS011;39553;52.954;5.932;2023-03-20T02:10:30;16.52;;;6.78;;
53652;SDS011;39553;52.954;5.932;2023-03-20T02:12:59;16.90;;;7.45;;
53652;SDS011;39553;52.954;5.932;2023-03-20T02:15:28;16.80;;;7.10;;
53652;SDS011;39553;52.954;5.932;2023-03-20T02:17:55;14.93;;;6.78;;
53652;SDS011;39553;52.954;5.932;2023-03-20T02:20:26;22.33;;;7.72;;
53652;SDS011;39553;52.954;5.932;2023-03-20T02:23:25;13.45;;;5.82;;
53652;SDS011;39553;52.954;5.932;2023-03-20T02:37:18;12.57;;;6.28;;
53652;SDS011;39553;52.954;5.932;2023-03-20T02:39:57;16.15;;;6.20;;
53652;SDS011;39553;52.954;5.932;2023-03-20T02:43:01;13.40;;;6.20;;
53652;SDS011;39553;52.954;5.932;2023-03-20T02:45:58;11.95;;;6.03;;
53652;SDS011;39553;52.954;5.932;2023-03-20T02:48:52;14.07;;;6.38;;
53652;SDS011;39553;52.954;5.932;2023-03-20T02:51:34;11.50;;;5.47;;
53652;SDS011;39553;52.954;5.932;2023-03-20T02:56:48;9.82;;;4.95;;
53652;SDS011;39553;52.954;5.932;2023-03-20T03:02:10;11.02;;;6.07;;
53652;SDS011;39553;52.954;5.932;2023-03-20T03:04:48;12.50;;;5.20;;
53652;SDS011;39553;52.954;5.932;2023-03-20T03:07:18;13.63;;;6.03;;
53652;SDS011;39553;52.954;5.932;2023-03-20T03:09:55;14.07;;;5.00;;
53652;SDS011;39553;52.954;5.932;2023-03-20T03:12:33;10.63;;;5.32;;
53652;SDS011;39553;52.954;5.932;2023-03-20T03:15:04;19.10;;;6.25;;
53652;SDS011;39553;52.954;5.932;2023-03-20T03:17:37;12.43;;;5.07;;
53652;SDS011;39553;52.954;5.932;2023-03-20T03:20:23;14.40;;;4.97;;
53652;SDS011;39553;52.954;5.932;2023-03-20T03:22:56;11.32;;;5.43;;
53652;SDS011;39553;52.954;5.932;2023-03-20T03:25:27;15.23;;;5.60;;
53652;SDS011;39553;52.954;5.932;2023-03-20T03:28:20;18.25;;;6.30;;
53652;SDS011;39553;52.954;5.932;2023-03-20T03:30:43;15.40;;;6.25;;
53652;SDS011;39553;52.954;5.932;2023-03-20T03:33:14;11.55;;;6.18;;
53652;SDS011;39553;52.954;5.932;2023-03-20T03:35:48;13.13;;;6.88;;
53652;SDS011;39553;52.954;5.932;2023-03-20T03:38:29;10.27;;;5.78;;
53652;SDS011;39553;52.954;5.932;2023-03-20T03:41:11;16.77;;;6.28;;
53652;SDS011;39553;52.954;5.932;2023-03-20T03:46:59;17.70;;;6.35;;
53652;SDS011;39553;52.954;5.932;2023-03-20T03:49:30;11.50;;;5.10;;
53652;SDS011;39553;52.954;5.932;2023-03-20T03:52:04;8.40;;;5.25;;
53652;SDS011;39553;52.954;5.932;2023-03-20T03:54:39;12.80;;;5.53;;
53652;SDS011;39553;52.954;5.932;2023-03-20T03:57:26;11.80;;;6.10;;
53652;SDS011;39553;52.954;5.932;2023-03-20T04:00:16;12.55;;;6.20;;
53652;SDS011;39553;52.954;5.932;2023-03-20T04:02:46;15.25;;;6.18;;
53652;SDS011;39553;52.954;5.932;2023-03-20T04:05:18;13.32;;;6.15;;
53652;SDS011;39553;52.954;5.932;2023-03-20T04:07:46;14.75;;;6.30;;
53652;SDS011;39553;52.954;5.932;2023-03-20T04:10:17;13.98;;;6.05;;
53652;SDS011;39553;52.954;5.932;2023-03-20T04:12:46;16.05;;;6.90;;
53652;SDS011;39553;52.954;5.932;2023-03-20T04:15:12;17.23;;;6.97;;
53652;SDS011;39553;52.954;5.932;2023-03-20T04:17:40;12.25;;;6.90;;
53652;SDS011;39553;52.954;5.932;2023-03-20T04:20:08;12.82;;;7.28;;
53652;SDS011;39553;52.954;5.932;2023-03-20T04:22:38;15.35;;;6.93;;
53652;SDS011;39553;52.954;5.932;2023-03-20T04:25:05;16.70;;;7.38;;
53652;SDS011;39553;52.954;5.932;2023-03-20T04:27:34;16.63;;;8.15;;
53652;SDS011;39553;52.954;5.932;2023-03-20T04:30:00;19.67;;;7.60;;
53652;SDS011;39553;52.954;5.932;2023-03-20T04:32:26;22.50;;;8.50;;
53652;SDS011;39553;52.954;5.932;2023-03-20T04:34:52;19.40;;;8.43;;
53652;SDS011;39553;52.954;5.932;2023-03-20T04:37:18;19.15;;;9.10;;
53652;SDS011;39553;52.954;5.932;2023-03-20T04:39:45;16.92;;;9.18;;
53652;SDS011;39553;52.954;5.932;2023-03-20T04:42:11;17.10;;;9.60;;
53652;SDS011;39553;52.954;5.932;2023-03-20T04:44:37;19.75;;;8.93;;
53652;SDS011;39553;52.954;5.932;2023-03-20T04:47:08;15.70;;;7.38;;
53652;SDS011;39553;52.954;5.932;2023-03-20T04:49:38;17.92;;;8.82;;
53652;SDS011;39553;52.954;5.932;2023-03-20T04:52:04;21.95;;;8.23;;
53652;SDS011;39553;52.954;5.932;2023-03-20T04:54:34;16.60;;;8.40;;
53652;SDS011;39553;52.954;5.932;2023-03-20T04:57:00;17.98;;;7.75;;
53652;SDS011;39553;52.954;5.932;2023-03-20T04:59:26;17.50;;;8.98;;
53652;SDS011;39553;52.954;5.932;2023-03-20T05:01:52;16.52;;;8.10;;
53652;SDS011;39553;52.954;5.932;2023-03-20T05:04:18;15.52;;;8.82;;
53652;SDS011;39553;52.954;5.932;2023-03-20T05:06:45;25.00;;;8.45;;
53652;SDS011;39553;52.954;5.932;2023-03-20T05:09:14;21.17;;;8.52;;
53652;SDS011;39553;52.954;5.932;2023-03-20T05:11:41;20.52;;;8.80;;
53652;SDS011;39553;52.954;5.932;2023-03-20T05:14:07;15.63;;;8.52;;
53652;SDS011;39553;52.954;5.932;2023-03-20T05:16:36;17.88;;;8.30;;
53652;SDS011;39553;52.954;5.932;2023-03-20T05:19:03;16.02;;;8.35;;
53652;SDS011;39553;52.954;5.932;2023-03-20T05:21:29;19.40;;;8.68;;
53652;SDS011;39553;52.954;5.932;2023-03-20T05:23:55;15.40;;;7.97;;
53652;SDS011;39553;52.954;5.932;2023-03-20T05:26:24;14.23;;;7.95;;
53652;SDS011;39553;52.954;5.932;2023-03-20T05:28:52;16.13;;;8.18;;
53652;SDS011;39553;52.954;5.932;2023-03-20T05:31:20;18.20;;;7.95;;
53652;SDS011;39553;52.954;5.932;2023-03-20T05:33:46;17.70;;;7.18;;
53652;SDS011;39553;52.954;5.932;2023-03-20T05:36:12;16.50;;;8.00;;
53652;SDS011;39553;52.954;5.932;2023-03-20T05:38:41;15.25;;;7.25;;
53652;SDS011;39553;52.954;5.932;2023-03-20T05:41:07;21.45;;;7.97;;
53652;SDS011;39553;52.954;5.932;2023-03-20T05:43:33;16.95;;;7.90;;
53652;SDS011;39553;52.954;5.932;2023-03-20T05:45:59;15.63;;;7.38;;
53652;SDS011;39553;52.954;5.932;2023-03-20T05:48:25;15.80;;;8.27;;
53652;SDS011;39553;52.954;5.932;2023-03-20T05:50:53;13.10;;;7.03;;
53652;SDS011;39553;52.954;5.932;2023-03-20T05:53:19;16.23;;;8.32;;
53652;SDS011;39553;52.954;5.932;2023-03-20T05:55:45;15.45;;;7.60;;
53652;SDS011;39553;52.954;5.932;2023-03-20T05:58:12;17.90;;;7.75;;
53652;SDS011;39553;52.954;5.932;2023-03-20T06:00:38;17.38;;;9.30;;
53652;SDS011;39553;52.954;5.932;2023-03-20T06:03:07;18.42;;;7.40;;
53652;SDS011;39553;52.954;5.932;2023-03-20T06:05:34;16.90;;;8.45;;
53652;SDS011;39553;52.954;5.932;2023-03-20T06:08:06;17.65;;;8.02;;
53652;SDS011;39553;52.954;5.932;2023-03-20T06:10:32;15.75;;;7.68;;
53652;SDS011;39553;52.954;5.932;2023-03-20T06:12:59;16.90;;;7.90;;
53652;SDS011;39553;52.954;5.932;2023-03-20T06:15:26;12.40;;;6.13;;
53652;SDS011;39553;52.954;5.932;2023-03-20T06:17:53;25.70;;;7.95;;
53652;SDS011;39553;52.954;5.932;2023-03-20T06:20:19;21.90;;;8.77;;
53652;SDS011;39553;52.954;5.932;2023-03-20T06:22:47;18.17;;;7.97;;
53652;SDS011;39553;52.954;5.932;2023-03-20T06:25:14;17.27;;;8.65;;
53652;SDS011;39553;52.954;5.932;2023-03-20T06:27:40;19.42;;;8.63;;
53652;SDS011;39553;52.954;5.932;2023-03-20T06:30:06;16.40;;;9.45;;
53652;SDS011;39553;52.954;5.932;2023-03-20T06:32:33;18.67;;;9.45;;
53652;SDS011;39553;52.954;5.932;2023-03-20T06:35:00;15.68;;;8.57;;
53652;SDS011;39553;52.954;5.932;2023-03-20T06:37:27;17.98;;;9.52;;
53652;SDS011;39553;52.954;5.932;2023-03-20T06:39:53;16.83;;;9.65;;
53652;SDS011;39553;52.954;5.932;2023-03-20T06:42:19;19.40;;;9.32;;
53652;SDS011;39553;52.954;5.932;2023-03-20T06:44:45;20.40;;;9.00;;
53652;SDS011;39553;52.954;5.932;2023-03-20T06:47:11;18.33;;;9.85;;
53652;SDS011;39553;52.954;5.932;2023-03-20T06:49:37;20.65;;;9.35;;
53652;SDS011;39553;52.954;5.932;2023-03-20T06:52:04;21.80;;;10.65;;
53652;SDS011;39553;52.954;5.932;2023-03-20T06:54:33;19.77;;;10.35;;
53652;SDS011;39553;52.954;5.932;2023-03-20T06:56:59;19.33;;;9.35;;
53652;SDS011;39553;52.954;5.932;2023-03-20T06:59:29;20.60;;;10.25;;
53652;SDS011;39553;52.954;5.932;2023-03-20T07:02:06;21.70;;;9.65;;
53652;SDS011;39553;52.954;5.932;2023-03-20T07:12:54;20.10;;;9.93;;
53652;SDS011;39553;52.954;5.932;2023-03-20T07:15:49;20.52;;;10.15;;
53652;SDS011;39553;52.954;5.932;2023-03-20T07:18:23;20.92;;;10.43;;
53652;SDS011;39553;52.954;5.932;2023-03-20T07:20:50;24.83;;;9.88;;
53652;SDS011;39553;52.954;5.932;2023-03-20T07:23:21;18.80;;;9.98;;
53652;SDS011;39553;52.954;5.932;2023-03-20T07:25:47;20.52;;;10.38;;
53652;SDS011;39553;52.954;5.932;2023-03-20T07:30:49;14.93;;;9.25;;
53652;SDS011;39553;52.954;5.932;2023-03-20T07:46:24;16.25;;;9.93;;
53652;SDS011;39553;52.954;5.932;2023-03-20T07:48:57;22.15;;;9.70;;
53652;SDS011;39553;52.954;5.932;2023-03-20T07:51:29;20.08;;;9.70;;
53652;SDS011;39553;52.954;5.932;2023-03-20T07:54:00;16.98;;;10.18;;
53652;SDS011;39553;52.954;5.932;2023-03-20T07:56:47;18.33;;;9.65;;
53652;SDS011;39553;52.954;5.932;2023-03-20T07:59:15;21.45;;;10.48;;
53652;SDS011;39553;52.954;5.932;2023-03-20T08:02:16;21.92;;;9.25;;
53652;SDS011;39553;52.954;5.932;2023-03-20T08:04:45;19.80;;;9.10;;
53652;SDS011;39553;52.954;5.932;2023-03-20T08:07:15;19.73;;;9.90;;
53652;SDS011;39553;52.954;5.932;2023-03-20T08:09:41;19.15;;;9.57;;
53652;SDS011;39553;52.954;5.932;2023-03-20T08:12:13;18.33;;;8.40;;
53652;SDS011;39553;52.954;5.932;2023-03-20T08:14:40;16.02;;;9.23;;
53652;SDS011;39553;52.954;5.932;2023-03-20T08:17:08;19.48;;;8.45;;
53652;SDS011;39553;52.954;5.932;2023-03-20T08:19:34;17.63;;;10.38;;
53652;SDS011;39553;52.954;5.932;2023-03-20T08:22:02;16.65;;;9.40;;
53652;SDS011;39553;52.954;5.932;2023-03-20T08:24:29;18.33;;;8.98;;
53652;SDS011;39553;52.954;5.932;2023-03-20T08:26:55;20.70;;;9.07;;
53652;SDS011;39553;52.954;5.932;2023-03-20T08:29:24;18.23;;;8.82;;
53652;SDS011;39553;52.954;5.932;2023-03-20T08:32:03;17.63;;;9.02;;
53652;SDS011;39553;52.954;5.932;2023-03-20T08:34:32;18.75;;;9.80;;
53652;SDS011;39553;52.954;5.932;2023-03-20T08:37:03;19.33;;;9.48;;
53652;SDS011;39553;52.954;5.932;2023-03-20T08:40:15;14.73;;;9.07;;
53652;SDS011;39553;52.954;5.932;2023-03-20T08:43:15;16.10;;;8.15;;
53652;SDS011;39553;52.954;5.932;2023-03-20T08:45:42;15.55;;;7.70;;
53652;SDS011;39553;52.954;5.932;2023-03-20T08:48:12;19.88;;;9.75;;
53652;SDS011;39553;52.954;5.932;2023-03-20T08:50:49;16.20;;;8.05;;
53652;SDS011;39553;52.954;5.932;2023-03-20T08:53:23;19.15;;;9.13;;
53652;SDS011;39553;52.954;5.932;2023-03-20T08:56:40;13.90;;;7.40;;
53652;SDS011;39553;52.954;5.932;2023-03-20T08:59:11;18.15;;;8.38;;
53652;SDS011;39553;52.954;5.932;2023-03-20T09:01:38;14.25;;;7.70;;
53652;SDS011;39553;52.954;5.932;2023-03-20T09:04:30;17.80;;;8.50;;
53652;SDS011;39553;52.954;5.932;2023-03-20T09:07:11;14.23;;;8.20;;
53652;SDS011;39553;52.954;5.932;2023-03-20T09:12:50;18.50;;;8.98;;
53652;SDS011;39553;52.954;5.932;2023-03-20T09:15:47;21.45;;;7.93;;
53652;SDS011;39553;52.954;5.932;2023-03-20T09:18:32;13.18;;;7.95;;
53652;SDS011;39553;52.954;5.932;2023-03-20T09:21:24;18.38;;;7.82;;
53652;SDS011;39553;52.954;5.932;2023-03-20T09:24:08;18.63;;;9.18;;
53652;SDS011;39553;52.954;5.932;2023-03-20T09:26:53;17.10;;;8.52;;
53652;SDS011;39553;52.954;5.932;2023-03-20T09:29:49;17.15;;;8.90;;
53652;SDS011;39553;52.954;5.932;2023-03-20T09:32:16;19.50;;;8.68;;
53652;SDS011;39553;52.954;5.932;2023-03-20T09:35:03;19.27;;;8.88;;
53652;SDS011;39553;52.954;5.932;2023-03-20T09:37:37;13.32;;;6.82;;
53652;SDS011;39553;52.954;5.932;2023-03-20T09:40:07;18.95;;;8.13;;
53652;SDS011;39553;52.954;5.932;2023-03-20T09:42:50;17.95;;;8.23;;
53652;SDS011;39553;52.954;5.932;2023-03-20T10:02:58;20.30;;;7.70;;
53652;SDS011;39553;52.954;5.932;2023-03-20T10:05:30;16.20;;;7.30;;
53652;SDS011;39553;52.954;5.932;2023-03-20T10:08:13;18.80;;;7.50;;
53652;SDS011;39553;52.954;5.932;2023-03-20T10:17:14;18.90;;;7.60;;
53652;SDS011;39553;52.954;5.932;2023-03-20T10:19:23;13.10;;;6.45;;
53652;SDS011;39553;52.954;5.932;2023-03-20T10:24:37;23.70;;;7.68;;
53652;SDS011;39553;52.954;5.932;2023-03-20T10:27:28;12.52;;;6.85;;
53652;SDS011;39553;52.954;5.932;2023-03-20T10:30:18;16.20;;;6.72;;
53652;SDS011;39553;52.954;5.932;2023-03-20T10:41:00;12.93;;;6.40;;
53652;SDS011;39553;52.954;5.932;2023-03-20T10:43:32;15.13;;;4.82;;
53652;SDS011;39553;52.954;5.932;2023-03-20T10:46:01;14.38;;;8.23;;
53652;SDS011;39553;52.954;5.932;2023-03-20T10:51:16;11.77;;;6.38;;
53652;SDS011;39553;52.954;5.932;2023-03-20T10:56:25;10.80;;;6.60;;
53652;SDS011;39553;52.954;5.932;2023-03-20T10:59:06;21.85;;;7.13;;
53652;SDS011;39553;52.954;5.932;2023-03-20T11:01:46;23.58;;;7.22;;
53652;SDS011;39553;52.954;5.932;2023-03-20T11:04:12;14.10;;;7.97;;
53652;SDS011;39553;52.954;5.932;2023-03-20T11:07:01;15.02;;;6.88;;
53652;SDS011;39553;52.954;5.932;2023-03-20T11:09:36;11.57;;;5.95;;
53652;SDS011;39553;52.954;5.932;2023-03-20T11:12:02;14.25;;;6.35;;
53652;SDS011;39553;52.954;5.932;2023-03-20T11:14:35;14.60;;;6.97;;
53652;SDS011;39553;52.954;5.932;2023-03-20T11:17:03;16.20;;;7.35;;
53652;SDS011;39553;52.954;5.932;2023-03-20T11:19:36;16.30;;;7.68;;
53652;SDS011;39553;52.954;5.932;2023-03-20T11:22:08;19.60;;;7.53;;
53652;SDS011;39553;52.954;5.932;2023-03-20T11:24:50;17.35;;;6.63;;
53652;SDS011;39553;52.954;5.932;2023-03-20T11:27:26;11.77;;;7.15;;
53652;SDS011;39553;52.954;5.932;2023-03-20T11:29:54;11.75;;;5.93;;
53652;SDS011;39553;52.954;5.932;2023-03-20T11:32:32;15.00;;;7.75;;
53652;SDS011;39553;52.954;5.932;2023-03-20T11:35:21;14.13;;;6.97;;
53652;SDS011;39553;52.954;5.932;2023-03-20T11:37:50;11.27;;;6.05;;
53652;SDS011;39553;52.954;5.932;2023-03-20T11:45:24;12.77;;;8.10;;
53652;SDS011;39553;52.954;5.932;2023-03-20T11:47:52;13.60;;;6.68;;
53652;SDS011;39553;52.954;5.932;2023-03-20T11:50:31;19.13;;;7.72;;
53652;SDS011;39553;52.954;5.932;2023-03-20T11:53:01;13.98;;;7.80;;
53652;SDS011;39553;52.954;5.932;2023-03-20T11:55:41;16.95;;;8.90;;
53652;SDS011;39553;52.954;5.932;2023-03-20T11:58:21;16.25;;;7.88;;
53652;SDS011;39553;52.954;5.932;2023-03-20T12:00:49;14.93;;;8.02;;
53652;SDS011;39553;52.954;5.932;2023-03-20T12:06:16;16.33;;;8.73;;
53652;SDS011;39553;52.954;5.932;2023-03-20T12:09:04;21.77;;;9.40;;
53652;SDS011;39553;52.954;5.932;2023-03-20T12:11:39;28.55;;;10.02;;
53652;SDS011;39553;52.954;5.932;2023-03-20T12:14:07;12.45;;;7.07;;
53652;SDS011;39553;52.954;5.932;2023-03-20T12:16:42;14.85;;;8.13;;
53652;SDS011;39553;52.954;5.932;2023-03-20T12:19:11;14.55;;;8.00;;
53652;SDS011;39553;52.954;5.932;2023-03-20T12:22:25;20.45;;;9.57;;
53652;SDS011;39553;52.954;5.932;2023-03-20T12:24:44;16.70;;;9.90;;
53652;SDS011;39553;52.954;5.932;2023-03-20T12:27:36;13.52;;;9.25;;
53652;SDS011;39553;52.954;5.932;2023-03-20T12:35:28;20.10;;;10.70;;
53652;SDS011;39553;52.954;5.932;2023-03-20T12:37:56;25.75;;;11.82;;
53652;SDS011;39553;52.954;5.932;2023-03-20T12:40:31;20.00;;;11.88;;
53652;SDS011;39553;52.954;5.932;2023-03-20T12:43:25;23.80;;;11.27;;
53652;SDS011;39553;52.954;5.932;2023-03-20T12:46:01;18.52;;;11.57;;
53652;SDS011;39553;52.954;5.932;2023-03-20T12:48:58;20.60;;;10.70;;
53652;SDS011;39553;52.954;5.932;2023-03-20T12:57:28;24.58;;;12.35;;
53652;SDS011;39553;52.954;5.932;2023-03-20T13:05:45;26.33;;;14.90;;
53652;SDS011;39553;52.954;5.932;2023-03-20T13:08:29;27.27;;;15.18;;
53652;SDS011;39553;52.954;5.932;2023-03-20T13:11:22;24.88;;;14.38;;
53652;SDS011;39553;52.954;5.932;2023-03-20T13:16:50;23.85;;;13.70;;
53652;SDS011;39553;52.954;5.932;2023-03-20T13:24:53;24.80;;;14.85;;
53652;SDS011;39553;52.954;5.932;2023-03-20T13:27:29;24.42;;;14.95;;
53652;SDS011;39553;52.954;5.932;2023-03-20T13:35:34;26.00;;;14.10;;
53652;SDS011;39553;52.954;5.932;2023-03-20T13:38:10;23.55;;;15.18;;
53652;SDS011;39553;52.954;5.932;2023-03-20T13:40:43;27.17;;;15.25;;
53652;SDS011;39553;52.954;5.932;2023-03-20T13:46:02;25.83;;;12.77;;
53652;SDS011;39553;52.954;5.932;2023-03-20T13:48:50;24.58;;;14.05;;
53652;SDS011;39553;52.954;5.932;2023-03-20T13:57:16;20.00;;;12.73;;
53652;SDS011;39553;52.954;5.932;2023-03-20T14:04:50;27.52;;;15.65;;
53652;SDS011;39553;52.954;5.932;2023-03-20T14:07:32;24.45;;;14.60;;
53652;SDS011;39553;52.954;5.932;2023-03-20T14:15:32;21.95;;;14.80;;
53652;SDS011;39553;52.954;5.932;2023-03-20T14:18:24;22.20;;;13.15;;
53652;SDS011;39553;52.954;5.932;2023-03-20T14:20:51;24.55;;;15.13;;
53652;SDS011;39553;52.954;5.932;2023-03-20T14:23:25;23.13;;;14.68;;
53652;SDS011;39553;52.954;5.932;2023-03-20T14:25:57;25.50;;;13.68;;
53652;SDS011;39553;52.954;5.932;2023-03-20T14:28:25;22.40;;;14.73;;
53652;SDS011;39553;52.954;5.932;2023-03-20T14:33:58;21.20;;;13.65;;
53652;SDS011;39553;52.954;5.932;2023-03-20T14:36:26;26.30;;;14.80;;
53652;SDS011;39553;52.954;5.932;2023-03-20T14:38:58;25.85;;;11.95;;
53652;SDS011;39553;52.954;5.932;2023-03-20T14:44:27;19.23;;;13.80;;
53652;SDS011;39553;52.954;5.932;2023-03-20T14:47:09;23.88;;;15.32;;
53652;SDS011;39553;52.954;5.932;2023-03-20T14:53:17;24.90;;;13.55;;
53652;SDS011;39553;52.954;5.932;2023-03-20T14:57:50;23.45;;;13.65;;
53652;SDS011;39553;52.954;5.932;2023-03-20T15:02:49;18.65;;;11.88;;
53652;SDS011;39553;52.954;5.932;2023-03-20T15:05:27;17.75;;;10.80;;
53652;SDS011;39553;52.954;5.932;2023-03-20T15:07:56;20.55;;;13.93;;
53652;SDS011;39553;52.954;5.932;2023-03-20T15:10:27;23.50;;;13.73;;
53652;SDS011;39553;52.954;5.932;2023-03-20T15:12:53;22.52;;;14.18;;
53652;SDS011;39553;52.954;5.932;2023-03-20T15:15:23;22.60;;;12.70;;
53652;SDS011;39553;52.954;5.932;2023-03-20T15:18:02;25.13;;;13.27;;
53652;SDS011;39553;52.954;5.932;2023-03-20T15:20:47;23.20;;;13.80;;
53652;SDS011;39553;52.954;5.932;2023-03-20T15:23:13;21.95;;;13.70;;
53652;SDS011;39553;52.954;5.932;2023-03-20T15:25:43;16.63;;;11.43;;
53652;SDS011;39553;52.954;5.932;2023-03-20T15:28:14;21.08;;;14.35;;
53652;SDS011;39553;52.954;5.932;2023-03-20T15:30:41;20.55;;;13.07;;
53652;SDS011;39553;52.954;5.932;2023-03-20T15:33:13;26.63;;;14.88;;
53652;SDS011;39553;52.954;5.932;2023-03-20T15:35:43;25.40;;;16.10;;
53652;SDS011;39553;52.954;5.932;2023-03-20T15:38:10;20.65;;;12.70;;
53652;SDS011;39553;52.954;5.932;2023-03-20T15:40:40;20.23;;;13.20;;
53652;SDS011;39553;52.954;5.932;2023-03-20T15:43:11;23.65;;;14.68;;
53652;SDS011;39553;52.954;5.932;2023-03-20T15:45:40;22.38;;;14.52;;
53652;SDS011;39553;52.954;5.932;2023-03-20T15:48:08;26.05;;;15.75;;
53652;SDS011;39553;52.954;5.932;2023-03-20T15:50:45;23.60;;;14.07;;
53652;SDS011;39553;52.954;5.932;2023-03-20T15:53:18;18.48;;;12.43;;
53652;SDS011;39553;52.954;5.932;2023-03-20T15:55:49;17.02;;;10.02;;
53652;SDS011;39553;52.954;5.932;2023-03-20T15:58:23;21.00;;;13.05;;
53652;SDS011;39553;52.954;5.932;2023-03-20T16:00:52;19.80;;;13.00;;
53652;SDS011;39553;52.954;5.932;2023-03-20T16:03:18;19.33;;;12.07;;
53652;SDS011;39553;52.954;5.932;2023-03-20T16:05:49;19.95;;;12.20;;
53652;SDS011;39553;52.954;5.932;2023-03-20T16:08:23;24.35;;;13.35;;
53652;SDS011;39553;52.954;5.932;2023-03-20T16:10:58;18.65;;;12.23;;
53652;SDS011;39553;52.954;5.932;2023-03-20T16:13:34;20.15;;;11.77;;
53652;SDS011;39553;52.954;5.932;2023-03-20T16:16:03;18.23;;;11.35;;
53652;SDS011;39553;52.954;5.932;2023-03-20T16:18:32;19.15;;;13.68;;
53652;SDS011;39553;52.954;5.932;2023-03-20T16:21:02;14.40;;;10.35;;
53652;SDS011;39553;52.954;5.932;2023-03-20T16:23:37;16.90;;;12.32;;
53652;SDS011;39553;52.954;5.932;2023-03-20T16:26:06;17.73;;;12.50;;
53652;SDS011;39553;52.954;5.932;2023-03-20T16:28:38;19.27;;;12.80;;
53652;SDS011;39553;52.954;5.932;2023-03-20T16:31:47;19.25;;;12.65;;
53652;SDS011;39553;52.954;5.932;2023-03-20T16:34:03;23.88;;;12.98;;
53652;SDS011;39553;52.954;5.932;2023-03-20T16:36:34;22.27;;;13.85;;
53652;SDS011;39553;52.954;5.932;2023-03-20T16:41:41;19.00;;;11.98;;
53652;SDS011;39553;52.954;5.932;2023-03-20T16:44:16;19.90;;;12.85;;
53652;SDS011;39553;52.954;5.932;2023-03-20T16:47:01;21.63;;;13.55;;
53652;SDS011;39553;52.954;5.932;2023-03-20T16:52:09;20.15;;;14.07;;
53652;SDS011;39553;52.954;5.932;2023-03-20T16:54:39;21.38;;;13.65;;
53652;SDS011;39553;52.954;5.932;2023-03-20T16:57:08;21.27;;;14.15;;
53652;SDS011;39553;52.954;5.932;2023-03-20T16:59:42;21.88;;;14.63;;
53652;SDS011;39553;52.954;5.932;2023-03-20T17:02:20;22.92;;;13.40;;
53652;SDS011;39553;52.954;5.932;2023-03-20T17:04:47;22.80;;;13.98;;
53652;SDS011;39553;52.954;5.932;2023-03-20T17:07:14;22.52;;;14.05;;
53652;SDS011;39553;52.954;5.932;2023-03-20T17:12:41;21.30;;;14.00;;
53652;SDS011;39553;52.954;5.932;2023-03-20T17:15:09;15.20;;;10.30;;
53652;SDS011;39553;52.954;5.932;2023-03-20T17:17:39;21.85;;;13.30;;
53652;SDS011;39553;52.954;5.932;2023-03-20T17:20:05;23.90;;;14.38;;
53652;SDS011;39553;52.954;5.932;2023-03-20T17:22:35;22.35;;;13.15;;
53652;SDS011;39553;52.954;5.932;2023-03-20T17:25:01;24.52;;;15.07;;
53652;SDS011;39553;52.954;5.932;2023-03-20T17:27:30;20.50;;;13.95;;
53652;SDS011;39553;52.954;5.932;2023-03-20T17:29:58;21.73;;;14.70;;
53652;SDS011;39553;52.954;5.932;2023-03-20T17:32:24;27.05;;;17.02;;
53652;SDS011;39553;52.954;5.932;2023-03-20T17:34:50;27.65;;;17.20;;
53652;SDS011;39553;52.954;5.932;2023-03-20T17:37:18;24.00;;;15.32;;
53652;SDS011;39553;52.954;5.932;2023-03-20T17:39:48;26.30;;;15.18;;
53652;SDS011;39553;52.954;5.932;2023-03-20T17:42:18;21.80;;;13.88;;
53652;SDS011;39553;52.954;5.932;2023-03-20T17:44:46;25.30;;;15.07;;
53652;SDS011;39553;52.954;5.932;2023-03-20T17:47:20;23.88;;;15.40;;
53652;SDS011;39553;52.954;5.932;2023-03-20T17:49:47;22.35;;;13.57;;
53652;SDS011;39553;52.954;5.932;2023-03-20T17:52:17;22.60;;;13.43;;
53652;SDS011;39553;52.954;5.932;2023-03-20T17:54:44;20.38;;;13.23;;
53652;SDS011;39553;52.954;5.932;2023-03-20T17:57:19;28.98;;;15.82;;